sensor_id;sensor_type;location;lat;lon;timestamp;P1;P2;P0
77777;PMS5003;66966;-34.746;138.604;2023-03-23T00:02:23;6;6;
77777;PMS5003;66966;-34.746;138.604;2023-03-23T00:04:47;6;5;
77777;PMS5003;66966;-34.746;138.604;2023-03-23T00:07:12;6;5;
77777;PMS5003;66966;-34.746;138.604;2023-03-23T00:09:37;7;6;
77777;PMS5003;66966;-34.746;138.604;2023-03-23T00:12:03;6;5;
77777;PMS5003;66966;-34.746;138.604;2023-03-23T00:14:28;5;3;
77777;PMS5003;66966;-34.746;138.604;2023-03-23T00:16:54;5;5;
77777;PMS5003;66966;-34.746;138.604;2023-03-23T00:19:19;5;4;
77777;PMS5003;66966;-34.746;138.604;2023-03-23T00:21:44;7;4;
77777;PMS5003;66966;-34.746;138.604;2023-03-23T00:24:10;4;4;
77777;PMS5003;66966;-34.746;138.604;2023-03-23T00:26:35;6;5;
77777;PMS5003;66966;-34.746;138.604;2023-03-23T00:29:02;6;6;
77777;PMS5003;66966;-34.746;138.604;2023-03-23T00:31:26;8;6;
77777;PMS5003;66966;-34.746;138.604;2023-03-23T00:33:51;8;8;
77777;PMS5003;66966;-34.746;138.604;2023-03-23T00:36:16;8;7;
77777;PMS5003;66966;-34.746;138.604;2023-03-23T00:38:41;6;5;
77777;PMS5003;66966;-34.746;138.604;2023-03-23T00:41:08;8;8;
77777;PMS5003;66966;-34.746;138.604;2023-03-23T00:43:32;11;9;
77777;PMS5003;66966;-34.746;138.604;2023-03-23T00:45:57;9;9;
77777;PMS5003;66966;-34.746;138.604;2023-03-23T00:48:23;10;10;
77777;PMS5003;66966;-34.746;138.604;2023-03-23T00:50:48;6;6;
77777;PMS5003;66966;-34.746;138.604;2023-03-23T00:53:14;8;8;
77777;PMS5003;66966;-34.746;138.604;2023-03-23T00:55:40;8;8;
77777;PMS5003;66966;-34.746;138.604;2023-03-23T00:58:04;12;9;
77777;PMS5003;66966;-34.746;138.604;2023-03-23T01:00:29;6;6;
77777;PMS5003;66966;-34.746;138.604;2023-03-23T01:02:54;10;8;
77777;PMS5003;66966;-34.746;138.604;2023-03-23T01:05:20;7;6;
77777;PMS5003;66966;-34.746;138.604;2023-03-23T01:07:45;8;8;
77777;PMS5003;66966;-34.746;138.604;2023-03-23T01:10:11;10;9;
77777;PMS5003;66966;-34.746;138.604;2023-03-23T01:12:35;6;5;
77777;PMS5003;66966;-34.746;138.604;2023-03-23T01:15:01;8;8;
77777;PMS5003;66966;-34.746;138.604;2023-03-23T01:17:26;9;8;
77777;PMS5003;66966;-34.746;138.604;2023-03-23T01:19:52;7;6;
77777;PMS5003;66966;-34.746;138.604;2023-03-23T01:22:18;13;12;
77777;PMS5003;66966;-34.746;138.604;2023-03-23T01:24:43;8;7;
77777;PMS5003;66966;-34.746;138.604;2023-03-23T01:27:08;7;7;
77777;PMS5003;66966;-34.746;138.604;2023-03-23T01:29:34;8;8;
77777;PMS5003;66966;-34.746;138.604;2023-03-23T01:31:59;7;7;
77777;PMS5003;66966;-34.746;138.604;2023-03-23T01:34:24;6;6;
77777;PMS5003;66966;-34.746;138.604;2023-03-23T01:36:50;7;6;
77777;PMS5003;66966;-34.746;138.604;2023-03-23T01:39:15;5;4;
77777;PMS5003;66966;-34.746;138.604;2023-03-23T01:41:41;5;4;
77777;PMS5003;66966;-34.746;138.604;2023-03-23T01:44:07;7;7;
77777;PMS5003;66966;-34.746;138.604;2023-03-23T01:46:32;6;5;
77777;PMS5003;66966;-34.746;138.604;2023-03-23T01:48:58;8;7;
77777;PMS5003;66966;-34.746;138.604;2023-03-23T01:51:22;9;8;
77777;PMS5003;66966;-34.746;138.604;2023-03-23T01:53:50;8;5;
77777;PMS5003;66966;-34.746;138.604;2023-03-23T01:56:13;9;6;
77777;PMS5003;66966;-34.746;138.604;2023-03-23T01:58:38;6;6;
77777;PMS5003;66966;-34.746;138.604;2023-03-23T02:01:04;9;8;
77777;PMS5003;66966;-34.746;138.604;2023-03-23T02:03:28;6;6;
77777;PMS5003;66966;-34.746;138.604;2023-03-23T02:05:54;6;6;
77777;PMS5003;66966;-34.746;138.604;2023-03-23T02:08:19;6;6;
77777;PMS5003;66966;-34.746;138.604;2023-03-23T02:10:44;6;5;
77777;PMS5003;66966;-34.746;138.604;2023-03-23T02:13:10;7;7;
77777;PMS5003;66966;-34.746;138.604;2023-03-23T02:15:38;7;6;
77777;PMS5003;66966;-34.746;138.604;2023-03-23T02:18:03;8;6;
77777;PMS5003;66966;-34.746;138.604;2023-03-23T02:22:55;8;6;
77777;PMS5003;66966;-34.746;138.604;2023-03-23T02:27:45;5;5;
77777;PMS5003;66966;-34.746;138.604;2023-03-23T02:30:14;7;6;
77777;PMS5003;66966;-34.746;138.604;2023-03-23T02:34:57;6;6;
77777;PMS5003;66966;-34.746;138.604;2023-03-23T02:37:23;9;8;
77777;PMS5003;66966;-34.746;138.604;2023-03-23T02:39:48;7;7;
77777;PMS5003;66966;-34.746;138.604;2023-03-23T02:42:14;6;5;
77777;PMS5003;66966;-34.746;138.604;2023-03-23T02:44:39;5;5;
77777;PMS5003;66966;-34.746;138.604;2023-03-23T02:47:04;5;4;
77777;PMS5003;66966;-34.746;138.604;2023-03-23T02:49:29;5;5;
77777;PMS5003;66966;-34.746;138.604;2023-03-23T02:51:54;3;3;
77777;PMS5003;66966;-34.746;138.604;2023-03-23T02:54:19;5;4;
77777;PMS5003;66966;-34.746;138.604;2023-03-23T02:56:44;5;5;
77777;PMS5003;66966;-34.746;138.604;2023-03-23T02:59:09;6;5;
77777;PMS5003;66966;-34.746;138.604;2023-03-23T03:04:01;6;5;
77777;PMS5003;66966;-34.746;138.604;2023-03-23T03:06:27;5;5;
77777;PMS5003;66966;-34.746;138.604;2023-03-23T03:08:52;6;5;
77777;PMS5003;66966;-34.746;138.604;2023-03-23T03:11:16;6;5;
77777;PMS5003;66966;-34.746;138.604;2023-03-23T03:13:44;4;4;
77777;PMS5003;66966;-34.746;138.604;2023-03-23T03:16:08;7;7;
77777;PMS5003;66966;-34.746;138.604;2023-03-23T03:18:32;4;4;
77777;PMS5003;66966;-34.746;138.604;2023-03-23T03:20:58;7;5;
77777;PMS5003;66966;-34.746;138.604;2023-03-23T03:23:22;6;5;
77777;PMS5003;66966;-34.746;138.604;2023-03-23T03:25:47;6;6;
77777;PMS5003;66966;-34.746;138.604;2023-03-23T03:28:13;6;5;
77777;PMS5003;66966;-34.746;138.604;2023-03-23T03:30:38;9;8;
77777;PMS5003;66966;-34.746;138.604;2023-03-23T03:33:04;6;5;
77777;PMS5003;66966;-34.746;138.604;2023-03-23T03:35:29;7;6;
77777;PMS5003;66966;-34.746;138.604;2023-03-23T03:37:54;9;7;
77777;PMS5003;66966;-34.746;138.604;2023-03-23T03:40:20;10;7;
77777;PMS5003;66966;-34.746;138.604;2023-03-23T03:42:46;7;5;
77777;PMS5003;66966;-34.746;138.604;2023-03-23T03:45:13;5;5;
77777;PMS5003;66966;-34.746;138.604;2023-03-23T03:47:36;5;5;
77777;PMS5003;66966;-34.746;138.604;2023-03-23T03:50:01;8;5;
77777;PMS5003;66966;-34.746;138.604;2023-03-23T03:52:26;5;5;
77777;PMS5003;66966;-34.746;138.604;2023-03-23T03:54:52;5;4;
77777;PMS5003;66966;-34.746;138.604;2023-03-23T03:57:16;6;5;
77777;PMS5003;66966;-34.746;138.604;2023-03-23T03:59:42;6;6;
77777;PMS5003;66966;-34.746;138.604;2023-03-23T04:02:07;6;5;
77777;PMS5003;66966;-34.746;138.604;2023-03-23T04:04:32;6;5;
77777;PMS5003;66966;-34.746;138.604;2023-03-23T04:06:58;6;6;
77777;PMS5003;66966;-34.746;138.604;2023-03-23T04:09:23;6;5;
77777;PMS5003;66966;-34.746;138.604;2023-03-23T04:11:48;6;5;
77777;PMS5003;66966;-34.746;138.604;2023-03-23T04:14:13;7;6;
77777;PMS5003;66966;-34.746;138.604;2023-03-23T04:16:39;6;6;
77777;PMS5003;66966;-34.746;138.604;2023-03-23T04:19:05;5;4;
77777;PMS5003;66966;-34.746;138.604;2023-03-23T04:21:29;6;6;
77777;PMS5003;66966;-34.746;138.604;2023-03-23T04:23:55;6;6;
77777;PMS5003;66966;-34.746;138.604;2023-03-23T04:26:20;4;4;
77777;PMS5003;66966;-34.746;138.604;2023-03-23T04:28:45;5;5;
77777;PMS5003;66966;-34.746;138.604;2023-03-23T04:31:11;6;6;
77777;PMS5003;66966;-34.746;138.604;2023-03-23T04:33:36;6;6;
77777;PMS5003;66966;-34.746;138.604;2023-03-23T04:36:01;6;4;
77777;PMS5003;66966;-34.746;138.604;2023-03-23T04:38:27;6;4;
77777;PMS5003;66966;-34.746;138.604;2023-03-23T04:40:52;4;4;
77777;PMS5003;66966;-34.746;138.604;2023-03-23T04:43:18;7;5;
77777;PMS5003;66966;-34.746;138.604;2023-03-23T04:45:42;5;5;
77777;PMS5003;66966;-34.746;138.604;2023-03-23T04:48:08;6;4;
77777;PMS5003;66966;-34.746;138.604;2023-03-23T04:50:33;5;4;
77777;PMS5003;66966;-34.746;138.604;2023-03-23T04:52:59;5;5;
77777;PMS5003;66966;-34.746;138.604;2023-03-23T04:55:24;4;4;
77777;PMS5003;66966;-34.746;138.604;2023-03-23T04:57:49;6;5;
77777;PMS5003;66966;-34.746;138.604;2023-03-23T05:00:14;5;5;
77777;PMS5003;66966;-34.746;138.604;2023-03-23T05:02:40;5;5;
77777;PMS5003;66966;-34.746;138.604;2023-03-23T05:05:05;5;5;
77777;PMS5003;66966;-34.746;138.604;2023-03-23T05:07:30;4;3;
77777;PMS5003;66966;-34.746;138.604;2023-03-23T05:09:55;6;4;
77777;PMS5003;66966;-34.746;138.604;2023-03-23T05:12:20;5;5;
77777;PMS5003;66966;-34.746;138.604;2023-03-23T05:14:45;4;4;
77777;PMS5003;66966;-34.746;138.604;2023-03-23T05:17:11;6;6;
77777;PMS5003;66966;-34.746;138.604;2023-03-23T05:19:36;2;2;
77777;PMS5003;66966;-34.746;138.604;2023-03-23T05:22:01;4;4;
77777;PMS5003;66966;-34.746;138.604;2023-03-23T05:24:26;5;2;
77777;PMS5003;66966;-34.746;138.604;2023-03-23T05:26:51;5;4;
77777;PMS5003;66966;-34.746;138.604;2023-03-23T05:29:17;4;4;
77777;PMS5003;66966;-34.746;138.604;2023-03-23T05:31:42;7;6;
77777;PMS5003;66966;-34.746;138.604;2023-03-23T05:34:07;3;3;
77777;PMS5003;66966;-34.746;138.604;2023-03-23T05:36:32;5;4;
77777;PMS5003;66966;-34.746;138.604;2023-03-23T05:38:57;2;2;
77777;PMS5003;66966;-34.746;138.604;2023-03-23T05:41:23;3;3;
77777;PMS5003;66966;-34.746;138.604;2023-03-23T05:43:48;4;4;
77777;PMS5003;66966;-34.746;138.604;2023-03-23T05:46:13;3;3;
77777;PMS5003;66966;-34.746;138.604;2023-03-23T05:48:38;3;3;
77777;PMS5003;66966;-34.746;138.604;2023-03-23T05:51:04;5;3;
77777;PMS5003;66966;-34.746;138.604;2023-03-23T05:53:29;4;3;
77777;PMS5003;66966;-34.746;138.604;2023-03-23T05:55:58;3;3;
77777;PMS5003;66966;-34.746;138.604;2023-03-23T05:58:19;4;3;
77777;PMS5003;66966;-34.746;138.604;2023-03-23T06:00:44;5;3;
77777;PMS5003;66966;-34.746;138.604;2023-03-23T06:03:09;6;4;
77777;PMS5003;66966;-34.746;138.604;2023-03-23T06:05:35;5;4;
77777;PMS5003;66966;-34.746;138.604;2023-03-23T06:08:00;5;3;
77777;PMS5003;66966;-34.746;138.604;2023-03-23T06:10:25;5;5;
77777;PMS5003;66966;-34.746;138.604;2023-03-23T06:12:50;4;4;
77777;PMS5003;66966;-34.746;138.604;2023-03-23T06:15:15;5;4;
77777;PMS5003;66966;-34.746;138.604;2023-03-23T06:17:40;4;4;
77777;PMS5003;66966;-34.746;138.604;2023-03-23T06:20:06;3;3;
77777;PMS5003;66966;-34.746;138.604;2023-03-23T06:22:31;4;2;
77777;PMS5003;66966;-34.746;138.604;2023-03-23T06:24:56;3;3;
77777;PMS5003;66966;-34.746;138.604;2023-03-23T06:27:21;4;4;
77777;PMS5003;66966;-34.746;138.604;2023-03-23T06:29:46;5;4;
77777;PMS5003;66966;-34.746;138.604;2023-03-23T06:32:12;2;2;
77777;PMS5003;66966;-34.746;138.604;2023-03-23T06:34:37;3;3;
77777;PMS5003;66966;-34.746;138.604;2023-03-23T06:37:02;5;4;
77777;PMS5003;66966;-34.746;138.604;2023-03-23T06:39:27;2;2;
77777;PMS5003;66966;-34.746;138.604;2023-03-23T06:41:52;3;3;
77777;PMS5003;66966;-34.746;138.604;2023-03-23T06:44:18;5;5;
77777;PMS5003;66966;-34.746;138.604;2023-03-23T06:46:43;4;4;
77777;PMS5003;66966;-34.746;138.604;2023-03-23T06:49:08;5;4;
77777;PMS5003;66966;-34.746;138.604;2023-03-23T06:51:33;3;3;
77777;PMS5003;66966;-34.746;138.604;2023-03-23T06:53:58;5;4;
77777;PMS5003;66966;-34.746;138.604;2023-03-23T06:56:24;5;4;
77777;PMS5003;66966;-34.746;138.604;2023-03-23T06:58:48;4;3;
77777;PMS5003;66966;-34.746;138.604;2023-03-23T07:01:13;3;3;
77777;PMS5003;66966;-34.746;138.604;2023-03-23T07:03:39;3;2;
77777;PMS5003;66966;-34.746;138.604;2023-03-23T07:06:04;6;5;
77777;PMS5003;66966;-34.746;138.604;2023-03-23T07:08:29;3;2;
77777;PMS5003;66966;-34.746;138.604;2023-03-23T07:10:54;5;4;
77777;PMS5003;66966;-34.746;138.604;2023-03-23T07:13:19;4;4;
77777;PMS5003;66966;-34.746;138.604;2023-03-23T07:15:44;2;2;
77777;PMS5003;66966;-34.746;138.604;2023-03-23T07:18:10;3;3;
77777;PMS5003;66966;-34.746;138.604;2023-03-23T07:20:35;3;3;
77777;PMS5003;66966;-34.746;138.604;2023-03-23T07:23:00;3;3;
77777;PMS5003;66966;-34.746;138.604;2023-03-23T07:25:25;1;1;
77777;PMS5003;66966;-34.746;138.604;2023-03-23T07:27:50;4;3;
77777;PMS5003;66966;-34.746;138.604;2023-03-23T07:30:15;2;2;
77777;PMS5003;66966;-34.746;138.604;2023-03-23T07:32:41;3;2;
77777;PMS5003;66966;-34.746;138.604;2023-03-23T07:35:06;4;3;
77777;PMS5003;66966;-34.746;138.604;2023-03-23T07:37:31;4;4;
77777;PMS5003;66966;-34.746;138.604;2023-03-23T07:39:56;3;3;
77777;PMS5003;66966;-34.746;138.604;2023-03-23T07:42:21;4;3;
77777;PMS5003;66966;-34.746;138.604;2023-03-23T07:44:47;2;2;
77777;PMS5003;66966;-34.746;138.604;2023-03-23T07:47:12;3;3;
77777;PMS5003;66966;-34.746;138.604;2023-03-23T07:49:37;3;2;
77777;PMS5003;66966;-34.746;138.604;2023-03-23T07:52:02;3;2;
77777;PMS5003;66966;-34.746;138.604;2023-03-23T07:54:27;4;3;
77777;PMS5003;66966;-34.746;138.604;2023-03-23T07:56:53;2;2;
77777;PMS5003;66966;-34.746;138.604;2023-03-23T07:59:18;5;3;
77777;PMS5003;66966;-34.746;138.604;2023-03-23T08:01:43;2;2;
77777;PMS5003;66966;-34.746;138.604;2023-03-23T08:04:08;3;3;
77777;PMS5003;66966;-34.746;138.604;2023-03-23T08:06:33;4;3;
77777;PMS5003;66966;-34.746;138.604;2023-03-23T08:08:59;2;2;
77777;PMS5003;66966;-34.746;138.604;2023-03-23T08:11:24;6;3;
77777;PMS5003;66966;-34.746;138.604;2023-03-23T08:13:49;3;3;
77777;PMS5003;66966;-34.746;138.604;2023-03-23T08:16:14;3;2;
77777;PMS5003;66966;-34.746;138.604;2023-03-23T08:18:40;3;3;
77777;PMS5003;66966;-34.746;138.604;2023-03-23T08:21:06;3;3;
77777;PMS5003;66966;-34.746;138.604;2023-03-23T08:23:30;1;1;
77777;PMS5003;66966;-34.746;138.604;2023-03-23T08:25:55;7;6;
77777;PMS5003;66966;-34.746;138.604;2023-03-23T08:28:21;6;5;
77777;PMS5003;66966;-34.746;138.604;2023-03-23T08:30:46;4;4;
77777;PMS5003;66966;-34.746;138.604;2023-03-23T08:33:12;4;4;
77777;PMS5003;66966;-34.746;138.604;2023-03-23T08:35:36;3;3;
77777;PMS5003;66966;-34.746;138.604;2023-03-23T08:38:02;6;3;
77777;PMS5003;66966;-34.746;138.604;2023-03-23T08:40:27;6;5;
77777;PMS5003;66966;-34.746;138.604;2023-03-23T08:42:52;5;3;
77777;PMS5003;66966;-34.746;138.604;2023-03-23T08:45:19;4;3;
77777;PMS5003;66966;-34.746;138.604;2023-03-23T08:47:43;5;4;
77777;PMS5003;66966;-34.746;138.604;2023-03-23T08:50:10;4;3;
77777;PMS5003;66966;-34.746;138.604;2023-03-23T08:52:33;3;3;
77777;PMS5003;66966;-34.746;138.604;2023-03-23T08:54:59;4;3;
77777;PMS5003;66966;-34.746;138.604;2023-03-23T08:57:24;2;1;
77777;PMS5003;66966;-34.746;138.604;2023-03-23T08:59:49;4;3;
77777;PMS5003;66966;-34.746;138.604;2023-03-23T09:02:15;3;3;
77777;PMS5003;66966;-34.746;138.604;2023-03-23T09:04:40;3;3;
77777;PMS5003;66966;-34.746;138.604;2023-03-23T09:07:05;2;2;
77777;PMS5003;66966;-34.746;138.604;2023-03-23T09:09:31;3;2;
77777;PMS5003;66966;-34.746;138.604;2023-03-23T09:11:56;3;2;
77777;PMS5003;66966;-34.746;138.604;2023-03-23T09:14:21;3;2;
77777;PMS5003;66966;-34.746;138.604;2023-03-23T09:16:47;2;2;
77777;PMS5003;66966;-34.746;138.604;2023-03-23T09:19:12;2;2;
77777;PMS5003;66966;-34.746;138.604;2023-03-23T09:21:38;5;4;
77777;PMS5003;66966;-34.746;138.604;2023-03-23T09:24:02;2;1;
77777;PMS5003;66966;-34.746;138.604;2023-03-23T09:26:28;5;3;
77777;PMS5003;66966;-34.746;138.604;2023-03-23T09:28:53;4;4;
77777;PMS5003;66966;-34.746;138.604;2023-03-23T09:31:18;4;3;
77777;PMS5003;66966;-34.746;138.604;2023-03-23T09:33:44;6;4;
77777;PMS5003;66966;-34.746;138.604;2023-03-23T09:36:09;8;6;
77777;PMS5003;66966;-34.746;138.604;2023-03-23T09:38:34;5;4;
77777;PMS5003;66966;-34.746;138.604;2023-03-23T09:41:01;5;4;
77777;PMS5003;66966;-34.746;138.604;2023-03-23T09:45:54;3;3;
77777;PMS5003;66966;-34.746;138.604;2023-03-23T09:48:23;5;4;
77777;PMS5003;66966;-34.746;138.604;2023-03-23T09:50:42;5;4;
77777;PMS5003;66966;-34.746;138.604;2023-03-23T09:53:09;5;5;
77777;PMS5003;66966;-34.746;138.604;2023-03-23T09:55:32;5;5;
77777;PMS5003;66966;-34.746;138.604;2023-03-23T09:57:59;6;6;
77777;PMS5003;66966;-34.746;138.604;2023-03-23T10:00:24;5;4;
77777;PMS5003;66966;-34.746;138.604;2023-03-23T10:02:51;5;5;
77777;PMS5003;66966;-34.746;138.604;2023-03-23T10:07:39;4;4;
77777;PMS5003;66966;-34.746;138.604;2023-03-23T10:10:05;4;4;
77777;PMS5003;66966;-34.746;138.604;2023-03-23T10:12:30;4;4;
77777;PMS5003;66966;-34.746;138.604;2023-03-23T10:15:00;5;5;
77777;PMS5003;66966;-34.746;138.604;2023-03-23T10:17:21;4;4;
77777;PMS5003;66966;-34.746;138.604;2023-03-23T10:19:47;7;6;
77777;PMS5003;66966;-34.746;138.604;2023-03-23T10:22:11;6;6;
77777;PMS5003;66966;-34.746;138.604;2023-03-23T10:24:43;4;4;
77777;PMS5003;66966;-34.746;138.604;2023-03-23T10:27:07;5;4;
77777;PMS5003;66966;-34.746;138.604;2023-03-23T10:29:28;5;4;
77777;PMS5003;66966;-34.746;138.604;2023-03-23T10:31:53;4;4;
77777;PMS5003;66966;-34.746;138.604;2023-03-23T10:34:18;4;3;
77777;PMS5003;66966;-34.746;138.604;2023-03-23T10:36:49;4;2;
77777;PMS5003;66966;-34.746;138.604;2023-03-23T10:39:15;4;3;
77777;PMS5003;66966;-34.746;138.604;2023-03-23T10:41:33;3;3;
77777;PMS5003;66966;-34.746;138.604;2023-03-23T10:43:58;7;5;
77777;PMS5003;66966;-34.746;138.604;2023-03-23T10:46:28;4;4;
77777;PMS5003;66966;-34.746;138.604;2023-03-23T10:48:49;4;3;
77777;PMS5003;66966;-34.746;138.604;2023-03-23T10:51:16;5;3;
77777;PMS5003;66966;-34.746;138.604;2023-03-23T10:53:42;4;3;
77777;PMS5003;66966;-34.746;138.604;2023-03-23T10:56:16;4;4;
77777;PMS5003;66966;-34.746;138.604;2023-03-23T10:58:32;4;2;
77777;PMS5003;66966;-34.746;138.604;2023-03-23T11:00:56;3;3;
77777;PMS5003;66966;-34.746;138.604;2023-03-23T11:03:24;4;3;
77777;PMS5003;66966;-34.746;138.604;2023-03-23T11:05:49;6;4;
77777;PMS5003;66966;-34.746;138.604;2023-03-23T11:08:13;4;3;
77777;PMS5003;66966;-34.746;138.604;2023-03-23T11:10:38;5;4;
77777;PMS5003;66966;-34.746;138.604;2023-03-23T11:13:03;4;3;
77777;PMS5003;66966;-34.746;138.604;2023-03-23T11:15:29;4;3;
77777;PMS5003;66966;-34.746;138.604;2023-03-23T11:17:59;2;1;
77777;PMS5003;66966;-34.746;138.604;2023-03-23T11:20:19;5;3;
77777;PMS5003;66966;-34.746;138.604;2023-03-23T11:22:44;3;3;
77777;PMS5003;66966;-34.746;138.604;2023-03-23T11:25:09;2;2;
77777;PMS5003;66966;-34.746;138.604;2023-03-23T11:27:34;2;2;
77777;PMS5003;66966;-34.746;138.604;2023-03-23T11:30:01;3;2;
77777;PMS5003;66966;-34.746;138.604;2023-03-23T11:32:26;4;3;
77777;PMS5003;66966;-34.746;138.604;2023-03-23T11:34:54;3;3;
77777;PMS5003;66966;-34.746;138.604;2023-03-23T11:37:18;2;2;
77777;PMS5003;66966;-34.746;138.604;2023-03-23T11:44:33;3;3;
77777;PMS5003;66966;-34.746;138.604;2023-03-23T11:47:00;3;3;
77777;PMS5003;66966;-34.746;138.604;2023-03-23T11:49:27;5;4;
77777;PMS5003;66966;-34.746;138.604;2023-03-23T11:51:49;3;3;
77777;PMS5003;66966;-34.746;138.604;2023-03-23T11:54:15;2;1;
77777;PMS5003;66966;-34.746;138.604;2023-03-23T11:56:41;2;2;
77777;PMS5003;66966;-34.746;138.604;2023-03-23T11:59:09;2;2;
77777;PMS5003;66966;-34.746;138.604;2023-03-23T12:04:05;4;3;
77777;PMS5003;66966;-34.746;138.604;2023-03-23T12:06:22;3;3;
77777;PMS5003;66966;-34.746;138.604;2023-03-23T12:08:49;2;2;
77777;PMS5003;66966;-34.746;138.604;2023-03-23T12:11:13;2;2;
77777;PMS5003;66966;-34.746;138.604;2023-03-23T12:13:41;3;2;
77777;PMS5003;66966;-34.746;138.604;2023-03-23T12:16:05;7;5;
77777;PMS5003;66966;-34.746;138.604;2023-03-23T12:18:36;2;1;
77777;PMS5003;66966;-34.746;138.604;2023-03-23T12:20:57;4;4;
77777;PMS5003;66966;-34.746;138.604;2023-03-23T12:23:21;2;2;
77777;PMS5003;66966;-34.746;138.604;2023-03-23T12:25:47;3;2;
77777;PMS5003;66966;-34.746;138.604;2023-03-23T12:28:12;4;4;
77777;PMS5003;66966;-34.746;138.604;2023-03-23T12:30:35;3;3;
77777;PMS5003;66966;-34.746;138.604;2023-03-23T12:33:04;3;2;
77777;PMS5003;66966;-34.746;138.604;2023-03-23T12:35:28;4;4;
77777;PMS5003;66966;-34.746;138.604;2023-03-23T12:37:53;4;2;
77777;PMS5003;66966;-34.746;138.604;2023-03-23T12:40:22;4;4;
77777;PMS5003;66966;-34.746;138.604;2023-03-23T12:42:45;3;3;
77777;PMS5003;66966;-34.746;138.604;2023-03-23T12:45:13;3;3;
77777;PMS5003;66966;-34.746;138.604;2023-03-23T12:47:35;3;2;
77777;PMS5003;66966;-34.746;138.604;2023-03-23T12:49:58;5;4;
77777;PMS5003;66966;-34.746;138.604;2023-03-23T12:52:24;3;3;
77777;PMS5003;66966;-34.746;138.604;2023-03-23T12:54:50;5;4;
77777;PMS5003;66966;-34.746;138.604;2023-03-23T12:57:16;3;3;
77777;PMS5003;66966;-34.746;138.604;2023-03-23T12:59:40;4;3;
77777;PMS5003;66966;-34.746;138.604;2023-03-23T13:02:07;3;2;
77777;PMS5003;66966;-34.746;138.604;2023-03-23T13:04:32;4;3;
77777;PMS5003;66966;-34.746;138.604;2023-03-23T13:06:55;3;3;
77777;PMS5003;66966;-34.746;138.604;2023-03-23T13:09:22;2;2;
77777;PMS5003;66966;-34.746;138.604;2023-03-23T13:11:47;4;4;
77777;PMS5003;66966;-34.746;138.604;2023-03-23T13:16:39;4;3;
77777;PMS5003;66966;-34.746;138.604;2023-03-23T13:19:06;3;3;
77777;PMS5003;66966;-34.746;138.604;2023-03-23T13:21:29;3;3;
77777;PMS5003;66966;-34.746;138.604;2023-03-23T13:23:55;3;3;
77777;PMS5003;66966;-34.746;138.604;2023-03-23T13:26:20;4;4;
77777;PMS5003;66966;-34.746;138.604;2023-03-23T13:28:48;5;5;
77777;PMS5003;66966;-34.746;138.604;2023-03-23T13:31:12;4;3;
77777;PMS5003;66966;-34.746;138.604;2023-03-23T13:33:35;2;2;
77777;PMS5003;66966;-34.746;138.604;2023-03-23T13:36:03;4;4;
77777;PMS5003;66966;-34.746;138.604;2023-03-23T13:38:27;5;4;
77777;PMS5003;66966;-34.746;138.604;2023-03-23T13:40:52;5;3;
77777;PMS5003;66966;-34.746;138.604;2023-03-23T13:45:44;3;3;
77777;PMS5003;66966;-34.746;138.604;2023-03-23T13:52:59;1;1;
77777;PMS5003;66966;-34.746;138.604;2023-03-23T13:55:37;7;4;
77777;PMS5003;66966;-34.746;138.604;2023-03-23T13:57:51;4;2;
77777;PMS5003;66966;-34.746;138.604;2023-03-23T14:02:41;5;3;
77777;PMS5003;66966;-34.746;138.604;2023-03-23T14:07:32;3;2;
77777;PMS5003;66966;-34.746;138.604;2023-03-23T14:10:04;2;2;
77777;PMS5003;66966;-34.746;138.604;2023-03-23T14:12:25;4;4;
77777;PMS5003;66966;-34.746;138.604;2023-03-23T14:14:48;5;3;
77777;PMS5003;66966;-34.746;138.604;2023-03-23T14:17:14;3;3;
77777;PMS5003;66966;-34.746;138.604;2023-03-23T14:19:39;3;3;
77777;PMS5003;66966;-34.746;138.604;2023-03-23T14:22:04;3;3;
77777;PMS5003;66966;-34.746;138.604;2023-03-23T14:24:31;3;3;
77777;PMS5003;66966;-34.746;138.604;2023-03-23T14:29:21;7;4;
77777;PMS5003;66966;-34.746;138.604;2023-03-23T14:31:48;2;2;
77777;PMS5003;66966;-34.746;138.604;2023-03-23T14:34:13;4;4;
77777;PMS5003;66966;-34.746;138.604;2023-03-23T14:36:38;3;2;
77777;PMS5003;66966;-34.746;138.604;2023-03-23T14:39:04;3;3;
77777;PMS5003;66966;-34.746;138.604;2023-03-23T14:41:29;6;6;
77777;PMS5003;66966;-34.746;138.604;2023-03-23T14:43:54;3;3;
77777;PMS5003;66966;-34.746;138.604;2023-03-23T14:46:19;5;4;
77777;PMS5003;66966;-34.746;138.604;2023-03-23T14:48:45;5;4;
77777;PMS5003;66966;-34.746;138.604;2023-03-23T14:53:36;5;5;
77777;PMS5003;66966;-34.746;138.604;2023-03-23T14:56:02;8;6;
77777;PMS5003;66966;-34.746;138.604;2023-03-23T14:58:26;5;4;
77777;PMS5003;66966;-34.746;138.604;2023-03-23T15:00:53;6;4;
77777;PMS5003;66966;-34.746;138.604;2023-03-23T15:03:17;6;5;
77777;PMS5003;66966;-34.746;138.604;2023-03-23T15:05:43;5;4;
77777;PMS5003;66966;-34.746;138.604;2023-03-23T15:08:11;6;6;
77777;PMS5003;66966;-34.746;138.604;2023-03-23T15:10:33;4;4;
77777;PMS5003;66966;-34.746;138.604;2023-03-23T15:12:59;6;5;
77777;PMS5003;66966;-34.746;138.604;2023-03-23T15:15:26;4;4;
77777;PMS5003;66966;-34.746;138.604;2023-03-23T15:17:50;6;4;
77777;PMS5003;66966;-34.746;138.604;2023-03-23T15:20:20;7;6;
77777;PMS5003;66966;-34.746;138.604;2023-03-23T15:22:45;7;6;
77777;PMS5003;66966;-34.746;138.604;2023-03-23T15:25:09;6;5;
77777;PMS5003;66966;-34.746;138.604;2023-03-23T15:27:33;5;4;
77777;PMS5003;66966;-34.746;138.604;2023-03-23T15:29:58;4;4;
77777;PMS5003;66966;-34.746;138.604;2023-03-23T15:32:24;7;6;
77777;PMS5003;66966;-34.746;138.604;2023-03-23T15:34:49;6;6;
77777;PMS5003;66966;-34.746;138.604;2023-03-23T15:37:18;5;5;
77777;PMS5003;66966;-34.746;138.604;2023-03-23T15:39:40;4;4;
77777;PMS5003;66966;-34.746;138.604;2023-03-23T15:42:04;6;4;
77777;PMS5003;66966;-34.746;138.604;2023-03-23T15:44:31;8;5;
77777;PMS5003;66966;-34.746;138.604;2023-03-23T15:49:21;8;5;
77777;PMS5003;66966;-34.746;138.604;2023-03-23T15:51:46;4;4;
77777;PMS5003;66966;-34.746;138.604;2023-03-23T15:54:14;4;4;
77777;PMS5003;66966;-34.746;138.604;2023-03-23T15:56:37;6;5;
77777;PMS5003;66966;-34.746;138.604;2023-03-23T15:59:03;7;6;
77777;PMS5003;66966;-34.746;138.604;2023-03-23T16:01:29;4;4;
77777;PMS5003;66966;-34.746;138.604;2023-03-23T16:03:54;5;4;
77777;PMS5003;66966;-34.746;138.604;2023-03-23T16:06:22;5;4;
77777;PMS5003;66966;-34.746;138.604;2023-03-23T16:08:45;8;7;
77777;PMS5003;66966;-34.746;138.604;2023-03-23T16:11:10;5;4;
77777;PMS5003;66966;-34.746;138.604;2023-03-23T16:13:36;5;4;
77777;PMS5003;66966;-34.746;138.604;2023-03-23T16:16:01;6;5;
77777;PMS5003;66966;-34.746;138.604;2023-03-23T16:18:27;4;4;
77777;PMS5003;66966;-34.746;138.604;2023-03-23T16:20:52;4;4;
77777;PMS5003;66966;-34.746;138.604;2023-03-23T16:23:17;4;2;
77777;PMS5003;66966;-34.746;138.604;2023-03-23T16:25:43;8;7;
77777;PMS5003;66966;-34.746;138.604;2023-03-23T16:28:09;5;5;
77777;PMS5003;66966;-34.746;138.604;2023-03-23T16:30:34;2;2;
77777;PMS5003;66966;-34.746;138.604;2023-03-23T16:32:59;4;4;